createdAt,value
2022-08-04T00:04:03.938Z,100234.09
2022-08-04T00:09:24.167Z,100237.47
2022-08-04T00:14:34.099Z,100236.88
2022-08-04T00:19:44.744Z,100230.44
2022-08-04T00:24:48.069Z,100234.06
2022-08-04T00:29:53.134Z,100240.00
2022-08-04T00:34:58.828Z,100239.13
2022-08-04T00:40:03.374Z,100237.59
2022-08-04T00:45:24.308Z,100243.16
2022-08-04T00:50:30.057Z,100246.97
2022-08-04T00:55:57.719Z,100248.03
2022-08-04T01:01:14.272Z,100247.69
2022-08-04T01:06:35.226Z,100241.22
2022-08-04T01:11:56.420Z,100250.72
2022-08-04T01:17:25.373Z,100246.78
2022-08-04T01:22:34.378Z,100247.34
2022-08-04T01:28:15.521Z,100257.47
2022-08-04T01:33:24.260Z,100253.13
2022-08-04T01:38:34.676Z,100252.75
2022-08-04T01:43:43.873Z,100256.69
2022-08-04T01:48:53.880Z,100249.22
2022-08-04T01:53:57.399Z,100244.44
2022-08-04T01:59:02.916Z,100243.75
2022-08-04T02:04:18.861Z,100245.03
2022-08-04T02:10:10.118Z,100249.00
2022-08-04T02:16:09.685Z,100244.44
2022-08-04T02:21:16.829Z,100240.91
2022-08-04T02:26:24.313Z,100243.59
2022-08-04T02:31:51.352Z,100236.56
2022-08-04T02:36:56.244Z,100232.44
2022-08-04T02:42:00.166Z,100233.72
2022-08-04T02:47:04.622Z,100225.88
2022-08-04T02:52:10.555Z,100226.31
2022-08-04T02:57:17.590Z,100229.47
2022-08-04T03:02:35.140Z,100226.88
2022-08-04T03:08:15.456Z,100226.91
2022-08-04T03:13:48.556Z,100230.53
2022-08-04T03:19:38.862Z,100235.13
2022-08-04T03:25:35.288Z,100235.44
2022-08-04T03:31:47.306Z,100243.03
2022-08-04T03:37:25.909Z,100243.44
2022-08-04T03:43:58.977Z,100234.38
2022-08-04T03:48:59.259Z,100241.88
2022-08-04T03:54:32.087Z,100243.13
2022-08-04T03:59:55.917Z,100249.56
2022-08-04T04:05:16.420Z,100250.63
2022-08-04T04:10:38.245Z,100243.53
2022-08-04T04:16:08.977Z,100253.56
2022-08-04T04:21:46.508Z,100250.94
2022-08-04T04:27:19.690Z,100252.91
2022-08-04T04:32:54.236Z,100256.53
2022-08-04T04:38:33.228Z,100262.34
2022-08-04T04:44:07.685Z,100258.44
2022-08-04T04:49:40.969Z,100264.47
2022-08-04T04:55:02.482Z,100272.50
2022-08-04T05:00:13.352Z,100269.16
2022-08-04T05:05:40.037Z,100264.31
2022-08-04T05:10:51.891Z,100273.25
2022-08-04T05:16:24.829Z,100272.47
2022-08-04T05:21:39.776Z,100270.34
2022-08-04T05:26:50.250Z,100275.72
2022-08-04T05:31:56.308Z,100281.09
2022-08-04T05:37:16.386Z,100277.81
2022-08-04T05:42:19.751Z,100279.03
2022-08-04T05:47:28.171Z,100284.75
2022-08-04T05:52:32.550Z,100294.13
2022-08-04T05:57:38.854Z,100283.91
2022-08-04T06:02:44.930Z,100287.31
2022-08-04T06:08:11.796Z,100284.53
2022-08-04T06:13:48.608Z,100292.34
2022-08-04T06:20:03.633Z,100289.56
2022-08-04T06:24:07.376Z,100291.94
2022-08-04T06:29:20.640Z,100289.16
2022-08-04T06:34:24.294Z,100292.31
2022-08-04T06:39:29.417Z,100290.03
2022-08-04T06:44:34.441Z,100276.84
2022-08-04T06:49:44.111Z,100279.19
2022-08-04T06:55:07.229Z,100282.53
2022-08-04T07:00:14.462Z,100279.63
2022-08-04T07:05:20.063Z,100279.44
2022-08-04T07:10:24.845Z,100280.88
2022-08-04T07:15:28.409Z,100280.16
2022-08-04T07:20:36.214Z,100275.56
2022-08-04T07:26:00.793Z,100265.81
2022-08-04T07:31:05.346Z,100263.91
2022-08-04T07:36:11.477Z,100265.06
2022-08-04T07:41:38.747Z,100261.50
2022-08-04T07:46:43.182Z,100258.28
2022-08-04T07:51:46.605Z,100254.41
2022-08-04T07:56:51.793Z,100254.16
2022-08-04T08:01:59.068Z,100252.47
2022-08-04T08:07:02.047Z,100249.72
2022-08-04T08:12:37.424Z,100242.34
2022-08-04T08:17:30.104Z,100231.91
2022-08-04T08:22:33.200Z,100233.47
2022-08-04T08:27:38.206Z,100231.94
2022-08-04T08:32:41.285Z,100237.00
2022-08-04T08:37:58.559Z,100232.25
2022-08-04T08:44:06.441Z,100239.25
2022-08-04T08:50:01.582Z,100239.63
2022-08-04T08:55:21.437Z,100234.09
2022-08-04T09:00:55.167Z,100233.38
2022-08-04T09:06:29.507Z,100227.03
2022-08-04T09:12:10.054Z,100226.81
2022-08-04T09:17:55.490Z,100208.72
2022-08-04T09:23:19.456Z,100217.59
2022-08-04T09:28:52.794Z,100219.44
2022-08-04T09:34:27.346Z,100209.56
2022-08-04T09:39:52.165Z,100206.59
2022-08-04T09:45:26.603Z,100203.50
2022-08-04T09:50:50.260Z,100205.97
2022-08-04T09:56:32.455Z,100188.16
2022-08-04T10:01:38.594Z,100185.41
2022-08-04T10:07:12.334Z,100180.94
2022-08-04T10:12:24.235Z,100178.91
2022-08-04T10:17:55.071Z,100174.06
2022-08-04T10:23:19.390Z,100173.63
2022-08-04T10:28:23.471Z,100167.34
2022-08-04T10:33:49.536Z,100165.78
2022-08-04T10:39:43.519Z,100159.16
2022-08-04T10:45:19.294Z,100150.94
2022-08-04T10:50:26.689Z,100148.47
2022-08-04T10:56:06.724Z,100149.97
2022-08-04T11:02:01.438Z,100136.56
2022-08-04T11:06:54.127Z,100135.13
2022-08-04T11:12:23.656Z,100130.31
2022-08-04T11:17:35.482Z,100125.63
2022-08-04T11:22:50.332Z,100125.09
2022-08-04T11:28:11.378Z,100121.94
2022-08-04T11:33:54.548Z,100110.38
2022-08-04T11:39:08.066Z,100114.09
2022-08-04T11:44:23.186Z,100110.53
2022-08-04T11:49:56.781Z,100107.41
2022-08-04T11:55:07.367Z,100087.84
2022-08-04T12:00:14.600Z,100085.97
2022-08-04T12:05:36.693Z,100078.66
2022-08-04T12:11:09.081Z,100071.88
2022-08-04T12:16:30.790Z,100067.63
2022-08-04T12:21:53.233Z,100068.31
2022-08-04T12:27:20.388Z,100057.53
2022-08-04T12:33:18.052Z,100052.00
2022-08-04T12:38:23.627Z,100049.53
2022-08-04T12:43:39.492Z,100043.16
2022-08-04T12:48:47.161Z,100040.47
2022-08-04T12:53:51.679Z,100038.03
2022-08-04T12:59:12.994Z,100030.47
2022-08-04T13:04:20.199Z,100026.94
2022-08-04T13:09:26.701Z,100020.47
2022-08-04T13:14:37.762Z,100018.47
2022-08-04T13:19:56.344Z,100017.22
2022-08-04T13:26:41.390Z,100007.06
2022-08-04T13:30:25.835Z,100010.88
2022-08-04T13:35:54.732Z,100014.03
2022-08-04T13:40:57.875Z,99996.06
2022-08-04T13:46:06.464Z,99984.06
2022-08-04T13:51:12.342Z,99991.13
2022-08-04T13:56:16.893Z,99988.75
2022-08-04T14:01:35.993Z,99972.63
2022-08-04T14:07:06.905Z,99964.97
2022-08-04T14:12:38.823Z,99961.22
2022-08-04T14:17:47.139Z,99958.59
2022-08-04T14:22:49.965Z,99950.84
2022-08-04T14:27:57.540Z,99957.31
2022-08-04T14:34:02.084Z,99955.16
2022-08-04T14:38:42.454Z,99959.91
2022-08-04T14:44:03.734Z,99955.06
2022-08-04T14:49:13.118Z,99953.16
2022-08-04T14:54:18.855Z,99949.00
2022-08-04T14:59:22.486Z,99946.09
2022-08-04T15:04:26.251Z,99950.94
2022-08-04T15:09:29.742Z,99947.91
2022-08-04T15:14:37.482Z,99945.34
2022-08-04T15:19:41.302Z,99943.78
2022-08-04T15:24:58.908Z,99940.72
2022-08-04T15:30:08.691Z,99948.81
2022-08-04T15:35:22.135Z,99936.97
2022-08-04T15:40:55.983Z,99941.69
2022-08-04T15:46:43.869Z,99936.31
2022-08-04T15:51:32.118Z,99932.19
2022-08-04T15:56:35.858Z,99937.19
2022-08-04T16:01:38.769Z,99923.84
2022-08-04T16:06:43.663Z,99923.59
2022-08-04T16:11:46.615Z,99919.88
2022-08-04T16:16:50.375Z,99916.06
2022-08-04T16:21:57.692Z,99920.41
2022-08-04T16:27:06.471Z,99919.84
2022-08-04T16:32:25.342Z,99906.91
2022-08-04T16:37:40.690Z,99914.19
2022-08-04T16:42:45.119Z,99907.66
2022-08-04T16:47:47.835Z,99914.97
2022-08-04T16:52:55.723Z,99907.03
2022-08-04T16:58:01.387Z,99920.84
2022-08-04T17:03:10.323Z,99920.66
2022-08-04T17:08:30.558Z,99916.50
2022-08-04T17:14:04.337Z,99918.63
2022-08-04T17:19:25.051Z,99925.53
2022-08-04T17:24:29.554Z,99929.53
2022-08-04T17:29:43.109Z,99929.44
2022-08-04T17:34:55.042Z,99935.53
2022-08-04T17:40:22.448Z,99938.34
2022-08-04T17:50:51.113Z,99938.38
2022-08-04T17:55:56.943Z,99938.41
2022-08-04T18:01:22.995Z,99936.53
2022-08-04T18:06:25.540Z,99935.59
2022-08-04T18:11:41.903Z,99936.25
2022-08-04T18:16:45.692Z,99946.16
2022-08-04T18:21:59.492Z,99942.00
2022-08-04T18:27:06.573Z,99948.09
2022-08-04T18:32:10.500Z,99962.63
2022-08-04T18:38:03.313Z,99971.66
2022-08-04T18:42:38.602Z,99986.31
2022-08-04T18:47:54.368Z,99991.19
2022-08-04T18:53:01.694Z,100002.28
2022-08-04T18:58:11.654Z,100015.06
2022-08-04T19:03:22.018Z,100014.94
2022-08-04T19:08:33.194Z,100007.38
2022-08-04T19:13:38.134Z,100015.91
2022-08-04T19:18:41.266Z,100017.06
2022-08-04T19:24:11.074Z,100023.91
2022-08-04T19:29:08.451Z,100021.47
2022-08-04T19:34:11.583Z,100020.69
2022-08-04T19:39:14.575Z,100022.06
2022-08-04T19:44:19.084Z,100028.06
2022-08-04T19:50:04.462Z,100026.19
2022-08-04T19:54:49.381Z,100030.25
2022-08-04T19:59:54.875Z,100031.84
2022-08-04T20:04:58.211Z,100035.63
2022-08-04T20:10:04.425Z,100040.50
2022-08-04T20:15:08.458Z,100033.09
2022-08-04T20:20:15.387Z,100033.31
2022-08-04T20:25:37.602Z,100037.88
2022-08-04T20:30:42.497Z,100036.44
2022-08-04T20:36:00.731Z,100041.84
2022-08-04T20:41:08.403Z,100049.94
2022-08-04T20:46:18.698Z,100048.78
2022-08-04T20:51:33.343Z,100046.50
2022-08-04T20:56:50.499Z,100061.88
2022-08-04T21:01:54.245Z,100064.19
2022-08-04T21:07:08.335Z,100063.59
2022-08-04T21:12:27.604Z,100064.09
2022-08-04T21:17:56.956Z,100064.28
2022-08-04T21:22:59.943Z,100074.19
2022-08-04T21:28:05.227Z,100075.16
2022-08-04T21:33:08.268Z,100073.75
2022-08-04T21:38:16.204Z,100083.13
2022-08-04T21:43:19.829Z,100085.97
2022-08-04T21:48:27.485Z,100095.38
2022-08-04T21:53:30.604Z,100094.19
2022-08-04T21:58:33.343Z,100099.28
2022-08-04T22:03:52.968Z,100094.63
2022-08-04T22:09:00.137Z,100098.94
2022-08-04T22:14:11.065Z,100104.84
2022-08-04T22:19:14.200Z,100103.66
2022-08-04T22:24:26.112Z,100113.94
2022-08-04T22:29:32.843Z,100107.63
2022-08-04T22:34:39.415Z,100116.25
2022-08-04T22:39:56.121Z,100119.47
2022-08-04T22:44:59.400Z,100116.94
2022-08-04T22:50:26.992Z,100108.97
2022-08-04T22:55:27.036Z,100110.47
2022-08-04T23:00:53.043Z,100110.56
2022-08-04T23:06:11.089Z,100107.38
2022-08-04T23:11:14.998Z,100103.44
2022-08-04T23:16:19.149Z,100101.09
2022-08-04T23:21:24.708Z,100097.28
2022-08-04T23:26:28.454Z,100100.16
2022-08-04T23:31:41.137Z,100098.16
2022-08-04T23:36:44.569Z,100101.34
2022-08-04T23:41:53.386Z,100091.41
2022-08-04T23:47:03.813Z,100096.97
2022-08-04T23:52:07.457Z,100095.50
2022-08-04T23:57:19.864Z,100099.16
